sensor_id;sensor_type;location;lat;lon;timestamp;temperature;humidity
19622;DHT22;9958;33.196;-97.114;2023-03-29T00:00:13;16.50;58.00
19622;DHT22;9958;33.196;-97.114;2023-03-29T00:02:42;16.40;57.80
19622;DHT22;9958;33.196;-97.114;2023-03-29T00:05:14;16.40;58.00
19622;DHT22;9958;33.196;-97.114;2023-03-29T00:07:43;16.30;57.90
19622;DHT22;9958;33.196;-97.114;2023-03-29T00:10:13;16.30;58.20
19622;DHT22;9958;33.196;-97.114;2023-03-29T00:12:41;16.30;58.90
19622;DHT22;9958;33.196;-97.114;2023-03-29T00:15:10;16.20;58.70
19622;DHT22;9958;33.196;-97.114;2023-03-29T00:17:39;16.10;58.50
19622;DHT22;9958;33.196;-97.114;2023-03-29T00:20:08;16.00;58.80
19622;DHT22;9958;33.196;-97.114;2023-03-29T00:22:38;16.00;59.20
19622;DHT22;9958;33.196;-97.114;2023-03-29T00:25:07;15.90;59.20
19622;DHT22;9958;33.196;-97.114;2023-03-29T00:27:38;15.80;58.70
19622;DHT22;9958;33.196;-97.114;2023-03-29T00:30:08;15.70;59.20
19622;DHT22;9958;33.196;-97.114;2023-03-29T00:32:37;15.60;59.20
19622;DHT22;9958;33.196;-97.114;2023-03-29T00:35:05;15.60;59.60
19622;DHT22;9958;33.196;-97.114;2023-03-29T00:37:34;15.50;59.40
19622;DHT22;9958;33.196;-97.114;2023-03-29T00:40:04;15.50;60.20
19622;DHT22;9958;33.196;-97.114;2023-03-29T00:42:37;15.40;59.80
19622;DHT22;9958;33.196;-97.114;2023-03-29T00:45:12;15.30;59.80
19622;DHT22;9958;33.196;-97.114;2023-03-29T00:47:45;15.30;60.50
19622;DHT22;9958;33.196;-97.114;2023-03-29T00:50:18;15.10;60.60
19622;DHT22;9958;33.196;-97.114;2023-03-29T00:52:51;15.10;60.70
19622;DHT22;9958;33.196;-97.114;2023-03-29T00:55:24;14.90;60.90
19622;DHT22;9958;33.196;-97.114;2023-03-29T00:57:57;14.90;60.90
19622;DHT22;9958;33.196;-97.114;2023-03-29T01:00:29;14.80;61.10
19622;DHT22;9958;33.196;-97.114;2023-03-29T01:02:59;14.70;61.50
19622;DHT22;9958;33.196;-97.114;2023-03-29T01:05:31;14.70;61.60
19622;DHT22;9958;33.196;-97.114;2023-03-29T01:08:05;14.60;62.60
19622;DHT22;9958;33.196;-97.114;2023-03-29T01:10:40;14.50;62.60
19622;DHT22;9958;33.196;-97.114;2023-03-29T01:13:11;14.50;62.40
19622;DHT22;9958;33.196;-97.114;2023-03-29T01:15:43;14.40;62.50
19622;DHT22;9958;33.196;-97.114;2023-03-29T01:18:13;14.40;62.70
19622;DHT22;9958;33.196;-97.114;2023-03-29T01:20:56;14.30;62.70
19622;DHT22;9958;33.196;-97.114;2023-03-29T01:23:51;14.20;63.00
19622;DHT22;9958;33.196;-97.114;2023-03-29T01:26:27;14.10;63.80
19622;DHT22;9958;33.196;-97.114;2023-03-29T01:29:02;14.10;64.80
19622;DHT22;9958;33.196;-97.114;2023-03-29T01:31:37;14.00;66.00
19622;DHT22;9958;33.196;-97.114;2023-03-29T01:34:11;13.90;65.60
19622;DHT22;9958;33.196;-97.114;2023-03-29T01:36:46;13.80;66.70
19622;DHT22;9958;33.196;-97.114;2023-03-29T01:39:16;13.80;68.10
19622;DHT22;9958;33.196;-97.114;2023-03-29T01:41:50;13.70;69.00
19622;DHT22;9958;33.196;-97.114;2023-03-29T01:44:29;13.60;68.70
19622;DHT22;9958;33.196;-97.114;2023-03-29T01:47:03;13.50;68.70
19622;DHT22;9958;33.196;-97.114;2023-03-29T01:49:38;13.40;68.80
19622;DHT22;9958;33.196;-97.114;2023-03-29T01:52:12;13.30;69.00
19622;DHT22;9958;33.196;-97.114;2023-03-29T01:54:46;13.30;69.60
19622;DHT22;9958;33.196;-97.114;2023-03-29T01:57:16;13.20;70.50
19622;DHT22;9958;33.196;-97.114;2023-03-29T01:59:47;13.10;71.10
19622;DHT22;9958;33.196;-97.114;2023-03-29T02:02:18;13.00;71.30
19622;DHT22;9958;33.196;-97.114;2023-03-29T02:04:51;12.90;70.80
19622;DHT22;9958;33.196;-97.114;2023-03-29T02:07:23;12.90;70.40
19622;DHT22;9958;33.196;-97.114;2023-03-29T02:09:52;12.80;70.60
19622;DHT22;9958;33.196;-97.114;2023-03-29T02:12:21;12.80;72.00
19622;DHT22;9958;33.196;-97.114;2023-03-29T02:14:51;12.70;73.10
19622;DHT22;9958;33.196;-97.114;2023-03-29T02:17:21;12.60;73.20
19622;DHT22;9958;33.196;-97.114;2023-03-29T02:19:52;12.60;73.20
19622;DHT22;9958;33.196;-97.114;2023-03-29T02:22:25;12.50;73.70
19622;DHT22;9958;33.196;-97.114;2023-03-29T02:24:58;12.50;74.30
19622;DHT22;9958;33.196;-97.114;2023-03-29T02:27:30;12.40;74.00
19622;DHT22;9958;33.196;-97.114;2023-03-29T02:30:00;12.30;74.50
19622;DHT22;9958;33.196;-97.114;2023-03-29T02:32:33;12.30;75.60
19622;DHT22;9958;33.196;-97.114;2023-03-29T02:35:05;12.20;75.40
19622;DHT22;9958;33.196;-97.114;2023-03-29T02:37:37;12.20;76.40
19622;DHT22;9958;33.196;-97.114;2023-03-29T02:40:08;12.10;76.60
19622;DHT22;9958;33.196;-97.114;2023-03-29T02:42:39;12.00;77.20
19622;DHT22;9958;33.196;-97.114;2023-03-29T02:45:13;11.90;77.70
19622;DHT22;9958;33.196;-97.114;2023-03-29T02:47:45;11.80;77.90
19622;DHT22;9958;33.196;-97.114;2023-03-29T02:50:17;11.80;78.40
19622;DHT22;9958;33.196;-97.114;2023-03-29T02:52:50;11.70;78.60
19622;DHT22;9958;33.196;-97.114;2023-03-29T02:55:21;11.60;78.50
19622;DHT22;9958;33.196;-97.114;2023-03-29T02:57:50;11.50;78.90
19622;DHT22;9958;33.196;-97.114;2023-03-29T03:00:21;11.50;79.80
19622;DHT22;9958;33.196;-97.114;2023-03-29T03:02:49;11.40;79.60
19622;DHT22;9958;33.196;-97.114;2023-03-29T03:05:18;11.40;79.70
19622;DHT22;9958;33.196;-97.114;2023-03-29T03:07:46;11.30;81.30
19622;DHT22;9958;33.196;-97.114;2023-03-29T03:10:14;11.30;81.60
19622;DHT22;9958;33.196;-97.114;2023-03-29T03:12:44;11.20;81.40
19622;DHT22;9958;33.196;-97.114;2023-03-29T03:15:12;11.20;81.40
19622;DHT22;9958;33.196;-97.114;2023-03-29T03:17:42;11.10;82.50
19622;DHT22;9958;33.196;-97.114;2023-03-29T03:20:12;11.10;84.00
19622;DHT22;9958;33.196;-97.114;2023-03-29T03:22:41;11.00;83.00
19622;DHT22;9958;33.196;-97.114;2023-03-29T03:25:10;10.90;83.80
19622;DHT22;9958;33.196;-97.114;2023-03-29T03:27:39;10.90;84.80
19622;DHT22;9958;33.196;-97.114;2023-03-29T03:30:08;10.80;83.40
19622;DHT22;9958;33.196;-97.114;2023-03-29T03:32:37;10.80;84.50
19622;DHT22;9958;33.196;-97.114;2023-03-29T03:35:09;10.70;85.30
19622;DHT22;9958;33.196;-97.114;2023-03-29T03:37:37;10.70;85.20
19622;DHT22;9958;33.196;-97.114;2023-03-29T03:40:07;10.60;85.30
19622;DHT22;9958;33.196;-97.114;2023-03-29T03:42:37;10.60;86.00
19622;DHT22;9958;33.196;-97.114;2023-03-29T03:45:06;10.50;86.30
19622;DHT22;9958;33.196;-97.114;2023-03-29T03:47:35;10.40;86.20
19622;DHT22;9958;33.196;-97.114;2023-03-29T03:50:04;10.40;86.20
19622;DHT22;9958;33.196;-97.114;2023-03-29T03:52:35;10.40;87.20
19622;DHT22;9958;33.196;-97.114;2023-03-29T03:55:04;10.30;87.80
19622;DHT22;9958;33.196;-97.114;2023-03-29T03:57:33;10.30;88.80
19622;DHT22;9958;33.196;-97.114;2023-03-29T04:00:03;10.20;89.10
19622;DHT22;9958;33.196;-97.114;2023-03-29T04:02:44;10.20;89.70
19622;DHT22;9958;33.196;-97.114;2023-03-29T04:05:13;10.20;90.00
19622;DHT22;9958;33.196;-97.114;2023-03-29T04:07:44;10.10;89.60
19622;DHT22;9958;33.196;-97.114;2023-03-29T04:10:12;10.00;90.00
19622;DHT22;9958;33.196;-97.114;2023-03-29T04:12:41;10.00;90.10
19622;DHT22;9958;33.196;-97.114;2023-03-29T04:15:09;9.90;90.60
19622;DHT22;9958;33.196;-97.114;2023-03-29T04:17:38;9.90;90.90
19622;DHT22;9958;33.196;-97.114;2023-03-29T04:20:06;9.90;91.10
19622;DHT22;9958;33.196;-97.114;2023-03-29T04:22:37;9.80;91.30
19622;DHT22;9958;33.196;-97.114;2023-03-29T04:25:08;9.80;91.50
19622;DHT22;9958;33.196;-97.114;2023-03-29T04:27:37;9.70;91.50
19622;DHT22;9958;33.196;-97.114;2023-03-29T04:30:06;9.70;91.60
19622;DHT22;9958;33.196;-97.114;2023-03-29T04:32:35;9.60;91.80
19622;DHT22;9958;33.196;-97.114;2023-03-29T04:35:04;9.60;91.90
19622;DHT22;9958;33.196;-97.114;2023-03-29T04:37:33;9.60;92.20
19622;DHT22;9958;33.196;-97.114;2023-03-29T04:40:02;9.60;92.40
19622;DHT22;9958;33.196;-97.114;2023-03-29T04:42:36;9.50;92.50
19622;DHT22;9958;33.196;-97.114;2023-03-29T04:45:05;9.50;92.70
19622;DHT22;9958;33.196;-97.114;2023-03-29T04:47:33;9.50;92.80
19622;DHT22;9958;33.196;-97.114;2023-03-29T04:50:05;9.50;92.90
19622;DHT22;9958;33.196;-97.114;2023-03-29T04:52:34;9.40;92.70
19622;DHT22;9958;33.196;-97.114;2023-03-29T04:55:04;9.40;92.90
19622;DHT22;9958;33.196;-97.114;2023-03-29T04:57:33;9.40;93.10
19622;DHT22;9958;33.196;-97.114;2023-03-29T05:00:04;9.30;93.30
19622;DHT22;9958;33.196;-97.114;2023-03-29T05:02:40;9.30;93.30
19622;DHT22;9958;33.196;-97.114;2023-03-29T05:05:09;9.30;93.30
19622;DHT22;9958;33.196;-97.114;2023-03-29T05:07:38;9.30;93.30
19622;DHT22;9958;33.196;-97.114;2023-03-29T05:10:07;9.30;93.30
19622;DHT22;9958;33.196;-97.114;2023-03-29T05:12:36;9.30;93.80
19622;DHT22;9958;33.196;-97.114;2023-03-29T05:15:07;9.30;93.50
19622;DHT22;9958;33.196;-97.114;2023-03-29T05:17:36;9.30;93.60
19622;DHT22;9958;33.196;-97.114;2023-03-29T05:20:05;9.40;93.30
19622;DHT22;9958;33.196;-97.114;2023-03-29T05:22:37;9.40;93.30
19622;DHT22;9958;33.196;-97.114;2023-03-29T05:25:06;9.40;93.20
19622;DHT22;9958;33.196;-97.114;2023-03-29T05:27:36;9.40;93.30
19622;DHT22;9958;33.196;-97.114;2023-03-29T05:30:08;9.50;93.60
19622;DHT22;9958;33.196;-97.114;2023-03-29T05:32:36;9.50;93.40
19622;DHT22;9958;33.196;-97.114;2023-03-29T05:35:05;9.50;93.80
19622;DHT22;9958;33.196;-97.114;2023-03-29T05:37:33;9.50;94.00
19622;DHT22;9958;33.196;-97.114;2023-03-29T05:40:02;9.50;93.90
19622;DHT22;9958;33.196;-97.114;2023-03-29T05:42:35;9.50;93.40
19622;DHT22;9958;33.196;-97.114;2023-03-29T05:45:07;9.50;93.40
19622;DHT22;9958;33.196;-97.114;2023-03-29T05:47:35;9.50;93.60
19622;DHT22;9958;33.196;-97.114;2023-03-29T05:50:05;9.50;94.70
19622;DHT22;9958;33.196;-97.114;2023-03-29T05:52:35;9.50;94.40
19622;DHT22;9958;33.196;-97.114;2023-03-29T05:55:04;9.60;94.30
19622;DHT22;9958;33.196;-97.114;2023-03-29T05:57:35;9.60;95.00
19622;DHT22;9958;33.196;-97.114;2023-03-29T06:00:04;9.60;94.70
19622;DHT22;9958;33.196;-97.114;2023-03-29T06:02:41;9.60;95.00
19622;DHT22;9958;33.196;-97.114;2023-03-29T06:05:10;9.60;95.30
19622;DHT22;9958;33.196;-97.114;2023-03-29T06:07:39;9.60;94.80
19622;DHT22;9958;33.196;-97.114;2023-03-29T06:10:08;9.70;94.40
19622;DHT22;9958;33.196;-97.114;2023-03-29T06:12:37;9.70;94.30
19622;DHT22;9958;33.196;-97.114;2023-03-29T06:15:06;9.70;95.00
19622;DHT22;9958;33.196;-97.114;2023-03-29T06:17:35;9.70;94.80
19622;DHT22;9958;33.196;-97.114;2023-03-29T06:20:07;9.70;94.90
19622;DHT22;9958;33.196;-97.114;2023-03-29T06:22:37;9.70;94.40
19622;DHT22;9958;33.196;-97.114;2023-03-29T06:25:06;9.70;94.70
19622;DHT22;9958;33.196;-97.114;2023-03-29T06:27:36;9.70;95.10
19622;DHT22;9958;33.196;-97.114;2023-03-29T06:30:05;9.70;95.20
19622;DHT22;9958;33.196;-97.114;2023-03-29T06:32:34;9.70;95.40
19622;DHT22;9958;33.196;-97.114;2023-03-29T06:35:03;9.60;95.40
19622;DHT22;9958;33.196;-97.114;2023-03-29T06:37:33;9.60;94.90
19622;DHT22;9958;33.196;-97.114;2023-03-29T06:40:01;9.60;94.30
19622;DHT22;9958;33.196;-97.114;2023-03-29T06:42:32;9.50;94.20
19622;DHT22;9958;33.196;-97.114;2023-03-29T06:45:01;9.50;95.00
19622;DHT22;9958;33.196;-97.114;2023-03-29T06:47:29;9.50;95.00
19622;DHT22;9958;33.196;-97.114;2023-03-29T06:49:58;9.40;94.90
19622;DHT22;9958;33.196;-97.114;2023-03-29T06:52:26;9.30;94.80
19622;DHT22;9958;33.196;-97.114;2023-03-29T06:54:56;9.30;94.80
19622;DHT22;9958;33.196;-97.114;2023-03-29T06:57:27;9.20;94.80
19622;DHT22;9958;33.196;-97.114;2023-03-29T06:59:56;9.20;94.90
19622;DHT22;9958;33.196;-97.114;2023-03-29T07:02:24;9.10;96.10
19622;DHT22;9958;33.196;-97.114;2023-03-29T07:04:52;9.20;96.60
19622;DHT22;9958;33.196;-97.114;2023-03-29T07:07:21;9.10;96.60
19622;DHT22;9958;33.196;-97.114;2023-03-29T07:09:52;9.00;96.40
19622;DHT22;9958;33.196;-97.114;2023-03-29T07:12:23;9.00;96.10
19622;DHT22;9958;33.196;-97.114;2023-03-29T07:14:51;9.00;96.00
19622;DHT22;9958;33.196;-97.114;2023-03-29T07:17:20;8.90;96.10
19622;DHT22;9958;33.196;-97.114;2023-03-29T07:19:48;8.90;96.10
19622;DHT22;9958;33.196;-97.114;2023-03-29T07:22:16;8.90;96.40
19622;DHT22;9958;33.196;-97.114;2023-03-29T07:24:45;8.80;96.20
19622;DHT22;9958;33.196;-97.114;2023-03-29T07:27:14;8.80;96.40
19622;DHT22;9958;33.196;-97.114;2023-03-29T07:29:45;8.80;97.00
19622;DHT22;9958;33.196;-97.114;2023-03-29T07:32:14;8.80;97.10
19622;DHT22;9958;33.196;-97.114;2023-03-29T07:34:43;8.70;97.10
19622;DHT22;9958;33.196;-97.114;2023-03-29T07:37:11;8.70;97.60
19622;DHT22;9958;33.196;-97.114;2023-03-29T07:39:40;8.70;97.70
19622;DHT22;9958;33.196;-97.114;2023-03-29T07:42:08;8.70;97.90
19622;DHT22;9958;33.196;-97.114;2023-03-29T07:44:36;8.60;98.50
19622;DHT22;9958;33.196;-97.114;2023-03-29T07:47:08;8.60;98.50
19622;DHT22;9958;33.196;-97.114;2023-03-29T07:49:36;8.60;98.40
19622;DHT22;9958;33.196;-97.114;2023-03-29T07:52:05;8.60;98.40
19622;DHT22;9958;33.196;-97.114;2023-03-29T07:54:34;8.60;98.50
19622;DHT22;9958;33.196;-97.114;2023-03-29T07:57:02;8.60;98.50
19622;DHT22;9958;33.196;-97.114;2023-03-29T07:59:31;8.60;98.10
19622;DHT22;9958;33.196;-97.114;2023-03-29T08:01:59;8.60;98.60
19622;DHT22;9958;33.196;-97.114;2023-03-29T08:04:29;8.60;98.70
19622;DHT22;9958;33.196;-97.114;2023-03-29T08:06:58;8.60;98.60
19622;DHT22;9958;33.196;-97.114;2023-03-29T08:09:26;8.60;98.20
19622;DHT22;9958;33.196;-97.114;2023-03-29T08:11:54;8.70;97.70
19622;DHT22;9958;33.196;-97.114;2023-03-29T08:14:23;8.60;97.00
19622;DHT22;9958;33.196;-97.114;2023-03-29T08:16:51;8.60;97.00
19622;DHT22;9958;33.196;-97.114;2023-03-29T08:19:20;8.70;97.90
19622;DHT22;9958;33.196;-97.114;2023-03-29T08:21:50;8.70;98.50
19622;DHT22;9958;33.196;-97.114;2023-03-29T08:24:19;8.70;99.00
19622;DHT22;9958;33.196;-97.114;2023-03-29T08:26:47;8.70;99.20
19622;DHT22;9958;33.196;-97.114;2023-03-29T08:29:16;8.70;99.30
19622;DHT22;9958;33.196;-97.114;2023-03-29T08:31:44;8.80;99.40
19622;DHT22;9958;33.196;-97.114;2023-03-29T08:34:13;8.70;99.10
19622;DHT22;9958;33.196;-97.114;2023-03-29T08:36:41;8.70;98.40
19622;DHT22;9958;33.196;-97.114;2023-03-29T08:39:11;8.70;98.90
19622;DHT22;9958;33.196;-97.114;2023-03-29T08:41:48;8.70;99.80
19622;DHT22;9958;33.196;-97.114;2023-03-29T08:44:33;8.70;99.70
19622;DHT22;9958;33.196;-97.114;2023-03-29T08:47:13;8.70;99.40
19622;DHT22;9958;33.196;-97.114;2023-03-29T08:49:48;8.70;98.90
19622;DHT22;9958;33.196;-97.114;2023-03-29T08:52:27;8.70;98.80
19622;DHT22;9958;33.196;-97.114;2023-03-29T08:55:01;8.70;98.60
19622;DHT22;9958;33.196;-97.114;2023-03-29T08:57:31;8.70;98.50
19622;DHT22;9958;33.196;-97.114;2023-03-29T09:00:02;8.70;98.40
19622;DHT22;9958;33.196;-97.114;2023-03-29T09:02:33;8.70;98.00
19622;DHT22;9958;33.196;-97.114;2023-03-29T09:05:07;8.80;98.00
19622;DHT22;9958;33.196;-97.114;2023-03-29T09:07:36;8.80;97.90
19622;DHT22;9958;33.196;-97.114;2023-03-29T09:10:11;8.90;98.50
19622;DHT22;9958;33.196;-97.114;2023-03-29T09:12:53;8.90;99.10
19622;DHT22;9958;33.196;-97.114;2023-03-29T09:15:27;8.90;99.10
19622;DHT22;9958;33.196;-97.114;2023-03-29T09:18:04;8.90;99.00
19622;DHT22;9958;33.196;-97.114;2023-03-29T09:20:44;8.90;99.70
19622;DHT22;9958;33.196;-97.114;2023-03-29T09:23:25;8.90;99.40
19622;DHT22;9958;33.196;-97.114;2023-03-29T09:26:02;8.90;98.90
19622;DHT22;9958;33.196;-97.114;2023-03-29T09:28:35;9.00;99.60
19622;DHT22;9958;33.196;-97.114;2023-03-29T09:31:09;9.00;99.40
19622;DHT22;9958;33.196;-97.114;2023-03-29T09:33:41;9.00;98.90
19622;DHT22;9958;33.196;-97.114;2023-03-29T09:36:15;9.00;98.10
19622;DHT22;9958;33.196;-97.114;2023-03-29T09:38:46;9.00;97.80
19622;DHT22;9958;33.196;-97.114;2023-03-29T09:41:23;9.00;97.50
19622;DHT22;9958;33.196;-97.114;2023-03-29T09:43:54;9.00;97.30
19622;DHT22;9958;33.196;-97.114;2023-03-29T09:46:27;9.00;97.10
19622;DHT22;9958;33.196;-97.114;2023-03-29T09:48:56;9.00;97.10
19622;DHT22;9958;33.196;-97.114;2023-03-29T09:51:27;8.90;97.20
19622;DHT22;9958;33.196;-97.114;2023-03-29T09:53:57;8.90;97.10
19622;DHT22;9958;33.196;-97.114;2023-03-29T09:56:28;8.90;97.40
19622;DHT22;9958;33.196;-97.114;2023-03-29T09:58:56;8.90;97.50
19622;DHT22;9958;33.196;-97.114;2023-03-29T10:01:35;8.90;97.10
19622;DHT22;9958;33.196;-97.114;2023-03-29T10:04:06;8.90;98.00
19622;DHT22;9958;33.196;-97.114;2023-03-29T10:06:35;8.90;99.40
19622;DHT22;9958;33.196;-97.114;2023-03-29T10:09:14;8.90;99.20
19622;DHT22;9958;33.196;-97.114;2023-03-29T10:11:48;8.80;98.30
19622;DHT22;9958;33.196;-97.114;2023-03-29T10:14:21;8.80;98.60
19622;DHT22;9958;33.196;-97.114;2023-03-29T10:16:57;8.90;99.70
19622;DHT22;9958;33.196;-97.114;2023-03-29T10:19:27;8.90;99.90
19622;DHT22;9958;33.196;-97.114;2023-03-29T10:22:01;8.80;99.90
19622;DHT22;9958;33.196;-97.114;2023-03-29T10:24:31;8.90;99.70
19622;DHT22;9958;33.196;-97.114;2023-03-29T10:27:02;8.90;99.90
19622;DHT22;9958;33.196;-97.114;2023-03-29T10:29:35;8.90;99.90
19622;DHT22;9958;33.196;-97.114;2023-03-29T10:32:14;8.90;99.20
19622;DHT22;9958;33.196;-97.114;2023-03-29T10:34:45;8.90;99.30
19622;DHT22;9958;33.196;-97.114;2023-03-29T10:37:14;8.90;99.40
19622;DHT22;9958;33.196;-97.114;2023-03-29T10:39:44;9.00;99.80
19622;DHT22;9958;33.196;-97.114;2023-03-29T10:42:16;9.00;99.20
19622;DHT22;9958;33.196;-97.114;2023-03-29T10:44:53;9.00;98.60
19622;DHT22;9958;33.196;-97.114;2023-03-29T10:47:21;9.10;98.50
19622;DHT22;9958;33.196;-97.114;2023-03-29T10:49:51;9.10;98.90
19622;DHT22;9958;33.196;-97.114;2023-03-29T10:52:21;9.10;99.30
19622;DHT22;9958;33.196;-97.114;2023-03-29T10:54:50;9.20;99.80
19622;DHT22;9958;33.196;-97.114;2023-03-29T10:57:25;9.20;99.90
19622;DHT22;9958;33.196;-97.114;2023-03-29T11:00:00;9.20;99.90
19622;DHT22;9958;33.196;-97.114;2023-03-29T11:02:51;9.20;99.90
19622;DHT22;9958;33.196;-97.114;2023-03-29T11:05:30;9.30;99.90
19622;DHT22;9958;33.196;-97.114;2023-03-29T11:08:25;9.30;99.90
19622;DHT22;9958;33.196;-97.114;2023-03-29T11:11:04;9.30;99.90
19622;DHT22;9958;33.196;-97.114;2023-03-29T11:13:42;9.30;99.90
19622;DHT22;9958;33.196;-97.114;2023-03-29T11:16:23;9.30;99.90
19622;DHT22;9958;33.196;-97.114;2023-03-29T11:19:16;9.30;99.90
19622;DHT22;9958;33.196;-97.114;2023-03-29T11:21:51;9.30;99.90
19622;DHT22;9958;33.196;-97.114;2023-03-29T11:24:36;9.30;99.90
19622;DHT22;9958;33.196;-97.114;2023-03-29T11:27:17;9.30;99.90
19622;DHT22;9958;33.196;-97.114;2023-03-29T11:30:00;9.40;99.90
19622;DHT22;9958;33.196;-97.114;2023-03-29T11:32:35;9.40;99.90
19622;DHT22;9958;33.196;-97.114;2023-03-29T11:35:18;9.40;99.90
19622;DHT22;9958;33.196;-97.114;2023-03-29T11:37:56;9.40;99.90
19622;DHT22;9958;33.196;-97.114;2023-03-29T11:40:34;9.40;99.90
19622;DHT22;9958;33.196;-97.114;2023-03-29T11:43:11;9.40;99.90
19622;DHT22;9958;33.196;-97.114;2023-03-29T11:45:48;9.40;99.90
19622;DHT22;9958;33.196;-97.114;2023-03-29T11:48:21;9.40;99.90
19622;DHT22;9958;33.196;-97.114;2023-03-29T11:50:53;9.40;99.90
19622;DHT22;9958;33.196;-97.114;2023-03-29T11:53:27;9.50;99.90
19622;DHT22;9958;33.196;-97.114;2023-03-29T11:56:01;9.50;99.90
19622;DHT22;9958;33.196;-97.114;2023-03-29T11:58:38;9.50;99.90
19622;DHT22;9958;33.196;-97.114;2023-03-29T12:01:12;9.50;99.90
19622;DHT22;9958;33.196;-97.114;2023-03-29T12:03:45;9.50;99.90
19622;DHT22;9958;33.196;-97.114;2023-03-29T12:06:20;9.40;99.90
19622;DHT22;9958;33.196;-97.114;2023-03-29T12:08:53;9.40;99.90
19622;DHT22;9958;33.196;-97.114;2023-03-29T12:11:28;9.40;99.90
19622;DHT22;9958;33.196;-97.114;2023-03-29T12:14:00;9.40;99.90
19622;DHT22;9958;33.196;-97.114;2023-03-29T12:16:36;9.40;99.90
19622;DHT22;9958;33.196;-97.114;2023-03-29T12:19:15;9.40;99.90
19622;DHT22;9958;33.196;-97.114;2023-03-29T12:21:45;9.40;99.90
19622;DHT22;9958;33.196;-97.114;2023-03-29T12:24:16;9.40;99.90
19622;DHT22;9958;33.196;-97.114;2023-03-29T12:27:01;9.30;99.90
19622;DHT22;9958;33.196;-97.114;2023-03-29T12:29:47;9.30;99.90
19622;DHT22;9958;33.196;-97.114;2023-03-29T12:32:32;9.30;99.90
19622;DHT22;9958;33.196;-97.114;2023-03-29T12:35:16;9.30;99.90
19622;DHT22;9958;33.196;-97.114;2023-03-29T12:37:58;9.30;99.90
19622;DHT22;9958;33.196;-97.114;2023-03-29T12:40:37;9.30;99.90
19622;DHT22;9958;33.196;-97.114;2023-03-29T12:43:12;9.30;99.90
19622;DHT22;9958;33.196;-97.114;2023-03-29T12:45:43;9.30;99.90
19622;DHT22;9958;33.196;-97.114;2023-03-29T12:48:18;9.30;99.90
19622;DHT22;9958;33.196;-97.114;2023-03-29T12:50:49;9.30;99.90
19622;DHT22;9958;33.196;-97.114;2023-03-29T12:53:21;9.40;99.90
19622;DHT22;9958;33.196;-97.114;2023-03-29T12:56:05;9.40;99.90
19622;DHT22;9958;33.196;-97.114;2023-03-29T12:58:48;9.40;99.90
19622;DHT22;9958;33.196;-97.114;2023-03-29T13:01:28;9.40;99.90
19622;DHT22;9958;33.196;-97.114;2023-03-29T13:04:16;9.50;99.90
19622;DHT22;9958;33.196;-97.114;2023-03-29T13:07:00;9.60;99.90
19622;DHT22;9958;33.196;-97.114;2023-03-29T13:09:47;9.60;99.90
19622;DHT22;9958;33.196;-97.114;2023-03-29T13:12:26;9.60;99.90
19622;DHT22;9958;33.196;-97.114;2023-03-29T13:14:58;9.70;99.90
19622;DHT22;9958;33.196;-97.114;2023-03-29T13:17:33;9.70;99.90
19622;DHT22;9958;33.196;-97.114;2023-03-29T13:20:19;9.80;99.90
19622;DHT22;9958;33.196;-97.114;2023-03-29T13:23:00;9.80;99.90
19622;DHT22;9958;33.196;-97.114;2023-03-29T13:25:41;9.80;99.90
19622;DHT22;9958;33.196;-97.114;2023-03-29T13:28:16;9.90;99.90
19622;DHT22;9958;33.196;-97.114;2023-03-29T13:30:50;9.90;99.90
19622;DHT22;9958;33.196;-97.114;2023-03-29T13:33:35;10.00;99.90
19622;DHT22;9958;33.196;-97.114;2023-03-29T13:36:09;10.00;99.90
19622;DHT22;9958;33.196;-97.114;2023-03-29T13:38:45;10.00;99.90
19622;DHT22;9958;33.196;-97.114;2023-03-29T13:41:27;10.10;99.90
19622;DHT22;9958;33.196;-97.114;2023-03-29T13:43:59;10.10;99.90
19622;DHT22;9958;33.196;-97.114;2023-03-29T13:46:38;10.20;99.90
19622;DHT22;9958;33.196;-97.114;2023-03-29T13:49:16;10.20;99.90
19622;DHT22;9958;33.196;-97.114;2023-03-29T13:52:04;10.20;99.90
19622;DHT22;9958;33.196;-97.114;2023-03-29T13:54:42;10.20;99.90
19622;DHT22;9958;33.196;-97.114;2023-03-29T13:57:16;10.30;99.90
19622;DHT22;9958;33.196;-97.114;2023-03-29T13:59:53;10.30;99.90
19622;DHT22;9958;33.196;-97.114;2023-03-29T14:02:31;10.30;99.90
19622;DHT22;9958;33.196;-97.114;2023-03-29T14:05:01;10.40;99.90
19622;DHT22;9958;33.196;-97.114;2023-03-29T14:07:32;10.40;99.90
19622;DHT22;9958;33.196;-97.114;2023-03-29T14:10:05;10.50;99.90
19622;DHT22;9958;33.196;-97.114;2023-03-29T14:12:36;10.50;99.90
19622;DHT22;9958;33.196;-97.114;2023-03-29T14:15:06;10.50;99.90
19622;DHT22;9958;33.196;-97.114;2023-03-29T14:17:36;10.60;99.90
19622;DHT22;9958;33.196;-97.114;2023-03-29T14:20:05;10.70;99.90
19622;DHT22;9958;33.196;-97.114;2023-03-29T14:22:37;10.70;99.90
19622;DHT22;9958;33.196;-97.114;2023-03-29T14:25:10;10.80;99.90
19622;DHT22;9958;33.196;-97.114;2023-03-29T14:27:40;10.80;99.90
19622;DHT22;9958;33.196;-97.114;2023-03-29T14:30:24;10.90;99.90
19622;DHT22;9958;33.196;-97.114;2023-03-29T14:32:54;10.90;99.90
19622;DHT22;9958;33.196;-97.114;2023-03-29T14:35:28;10.90;99.90
19622;DHT22;9958;33.196;-97.114;2023-03-29T14:38:00;10.90;99.90
19622;DHT22;9958;33.196;-97.114;2023-03-29T14:40:29;11.00;99.90
19622;DHT22;9958;33.196;-97.114;2023-03-29T14:43:02;11.00;99.90
19622;DHT22;9958;33.196;-97.114;2023-03-29T14:45:32;11.10;99.90
19622;DHT22;9958;33.196;-97.114;2023-03-29T14:48:01;11.20;99.90
19622;DHT22;9958;33.196;-97.114;2023-03-29T14:50:30;11.20;99.90
19622;DHT22;9958;33.196;-97.114;2023-03-29T14:53:01;11.40;99.90
19622;DHT22;9958;33.196;-97.114;2023-03-29T14:55:29;11.50;99.90
19622;DHT22;9958;33.196;-97.114;2023-03-29T14:57:58;11.60;99.90
19622;DHT22;9958;33.196;-97.114;2023-03-29T15:00:29;11.80;99.90
19622;DHT22;9958;33.196;-97.114;2023-03-29T15:03:01;11.90;99.90
19622;DHT22;9958;33.196;-97.114;2023-03-29T15:05:33;12.10;99.90
19622;DHT22;9958;33.196;-97.114;2023-03-29T15:08:05;12.30;99.90
19622;DHT22;9958;33.196;-97.114;2023-03-29T15:10:35;12.50;99.90
19622;DHT22;9958;33.196;-97.114;2023-03-29T15:13:06;12.70;99.90
19622;DHT22;9958;33.196;-97.114;2023-03-29T15:15:36;12.90;99.90
19622;DHT22;9958;33.196;-97.114;2023-03-29T15:18:06;13.10;99.90
19622;DHT22;9958;33.196;-97.114;2023-03-29T15:20:37;13.30;99.90
19622;DHT22;9958;33.196;-97.114;2023-03-29T15:23:21;13.60;99.90
19622;DHT22;9958;33.196;-97.114;2023-03-29T15:25:55;13.80;99.90
19622;DHT22;9958;33.196;-97.114;2023-03-29T15:28:26;14.00;99.50
19622;DHT22;9958;33.196;-97.114;2023-03-29T15:30:58;14.20;98.80
19622;DHT22;9958;33.196;-97.114;2023-03-29T15:33:33;14.30;98.20
19622;DHT22;9958;33.196;-97.114;2023-03-29T15:36:03;14.40;97.30
19622;DHT22;9958;33.196;-97.114;2023-03-29T15:38:33;14.40;97.00
19622;DHT22;9958;33.196;-97.114;2023-03-29T15:41:02;14.50;97.10
19622;DHT22;9958;33.196;-97.114;2023-03-29T15:43:32;14.50;96.80
19622;DHT22;9958;33.196;-97.114;2023-03-29T15:46:00;14.60;97.00
19622;DHT22;9958;33.196;-97.114;2023-03-29T15:48:29;14.60;96.60
19622;DHT22;9958;33.196;-97.114;2023-03-29T15:50:58;14.60;96.30
19622;DHT22;9958;33.196;-97.114;2023-03-29T15:53:28;14.60;96.60
19622;DHT22;9958;33.196;-97.114;2023-03-29T15:56:00;14.70;96.50